Time;durP1;ratioP1;P1;durP2;ratioP2;P2;SDS_P1;SDS_P2;PMS_P1;PMS_P2;Temp;Humidity;BMP_temperature;BMP_pressure;BME280_temperature;BME280_humidity;BME280_pressure;Samples;Min_cycle;Max_cycle;Signal;HPM_P1;HPM_P2
2022/12/08 00:02:22;;;;;;;17.00;8.75;;;;;;;1.39;80.42;99734.65;1988135;87;34949;-69
2022/12/08 00:12:09;;;;;;;17.30;8.03;;;;;;;1.57;80.57;99733.84;2034142;86;28676;-69
2022/12/08 00:15:11;;;;;;;15.50;7.33;;;;;;;1.62;80.49;99738.11;1993979;89;31034;-68
2022/12/08 00:18:13;;;;;;;12.40;7.50;;;;;;;1.67;80.44;99732.72;2034519;86;32942;-66
2022/12/08 00:21:19;;;;;;;12.45;8.45;;;;;;;1.73;80.42;99725.11;2034072;87;29360;-67
2022/12/08 00:24:27;;;;;;;15.65;7.47;;;;;;;1.79;80.41;99736.39;2033906;86;27668;-69
2022/12/08 00:27:30;;;;;;;15.32;7.85;;;;;;;1.84;80.43;99728.36;2034097;86;28674;-67
2022/12/08 00:30:32;;;;;;;14.50;7.65;;;;;;;1.89;80.33;99722.53;2034215;87;31020;-68
2022/12/08 00:33:35;;;;;;;18.07;8.25;;;;;;;1.95;80.45;99717.55;2033860;87;33131;-66
2022/12/08 00:36:37;;;;;;;16.30;8.03;;;;;;;2.00;80.37;99717.00;2034071;87;29339;-67
2022/12/08 00:39:40;;;;;;;16.27;7.33;;;;;;;2.04;80.41;99717.35;2034121;86;27584;-67
2022/12/08 00:42:42;;;;;;;18.12;7.90;;;;;;;2.10;80.38;99714.54;2033898;86;28778;-67
2022/12/08 00:45:45;;;;;;;14.78;7.60;;;;;;;2.16;80.47;99728.52;2034124;87;31026;-69
2022/12/08 00:48:46;;;;;;;13.95;7.55;;;;;;;2.21;80.54;99727.49;2034046;87;33002;-67
2022/12/08 00:51:48;;;;;;;12.85;7.17;;;;;;;2.25;80.44;99730.92;2034132;87;29312;-68
2022/12/08 00:54:51;;;;;;;12.03;6.95;;;;;;;2.31;80.53;99735.22;2033970;87;28036;-67
2022/12/08 00:57:53;;;;;;;11.22;5.65;;;;;;;2.34;80.42;99738.64;2033447;87;28656;-68
2022/12/08 01:00:55;;;;;;;11.25;5.87;;;;;;;2.39;80.50;99738.52;2032204;86;31086;-68
2022/12/08 01:04:03;;;;;;;8.55;5.20;;;;;;;2.44;80.47;99743.25;1993693;89;33211;-67
2022/12/08 01:07:06;;;;;;;10.28;6.10;;;;;;;2.48;80.44;99736.09;2031803;87;29330;-69
2022/12/08 01:10:08;;;;;;;12.60;5.87;;;;;;;2.54;80.55;99745.20;2031972;87;27814;-69
2022/12/08 01:13:10;;;;;;;14.75;7.40;;;;;;;2.57;80.54;99750.39;2031869;87;28668;-68
2022/12/08 01:16:29;;;;;;;11.83;7.05;;;;;;;2.63;80.49;99741.45;2031716;86;31033;-68
2022/12/08 01:19:31;;;;;;;14.63;7.08;;;;;;;2.64;80.48;99737.91;2031502;87;33012;-65
2022/12/08 01:22:35;;;;;;;12.73;7.10;;;;;;;2.69;80.58;99738.20;2031758;87;29476;-69
2022/12/08 01:25:37;;;;;;;10.45;6.35;;;;;;;2.72;80.59;99741.20;2031622;87;27845;-68
2022/12/08 01:28:40;;;;;;;12.45;6.58;;;;;;;2.76;80.49;99735.36;1993994;89;28658;-67
2022/12/08 01:31:42;;;;;;;13.18;6.33;;;;;;;2.78;80.37;99732.23;2031838;86;31042;-67
2022/12/08 01:34:45;;;;;;;14.60;8.28;;;;;;;2.80;80.32;99730.41;2031814;87;33099;-68
2022/12/08 01:37:49;;;;;;;14.50;9.28;;;;;;;2.81;80.37;99733.04;2031714;86;33646;-67
2022/12/08 01:40:52;;;;;;;14.30;9.03;;;;;;;2.83;80.24;99727.69;1994051;89;27546;-69
2022/12/08 01:44:12;;;;;;;15.53;9.83;;;;;;;2.81;80.10;99723.78;2031911;87;28650;-67
2022/12/08 01:47:14;;;;;;;17.80;9.95;;;;;;;2.81;80.10;99723.78;2031795;87;31069;-67
2022/12/08 01:50:18;;;;;;;16.02;11.00;;;;;;;2.81;80.15;99729.07;2022115;87;32841;-68
2022/12/08 01:53:25;;;;;;;22.05;10.70;;;;;;;2.80;80.15;99731.30;1993867;89;29419;-67
2022/12/08 01:56:41;;;;;;;18.65;11.68;;;;;;;2.82;80.24;99728.59;2031832;87;27809;-67
2022/12/08 01:59:48;;;;;;;21.52;11.55;;;;;;;2.83;80.32;99732.52;2033154;86;28670;-68
2022/12/08 02:02:56;;;;;;;17.55;11.12;;;;;;;2.81;80.20;99725.10;1996314;89;31057;-68
2022/12/08 02:05:58;;;;;;;24.20;11.70;;;;;;;2.84;80.29;99721.50;1991398;88;33033;-67
2022/12/08 02:09:03;;;;;;;17.40;9.53;;;;;;;2.85;80.29;99718.80;2034017;86;29331;-68
2022/12/08 02:12:06;;;;;;;16.42;11.40;;;;;;;2.87;80.23;99724.06;2023373;87;27673;-68
2022/12/08 02:15:10;;;;;;;18.75;9.83;;;;;;;2.87;80.25;99723.59;1964710;90;28723;-67
2022/12/08 02:18:32;;;;;;;17.20;10.10;;;;;;;2.86;80.06;99719.68;1991302;88;31070;-70
2022/12/08 02:21:48;;;;;;;17.50;10.25;;;;;;;2.87;79.98;99726.70;1991408;89;32996;-67
2022/12/08 02:24:58;;;;;;;18.20;10.48;;;;;;;2.87;80.11;99726.23;2032928;87;29419;-67
2022/12/08 02:28:36;;;;;;;17.82;9.60;;;;;;;2.86;79.94;99721.86;2033249;86;27860;-68
2022/12/08 02:32:12;;;;;;;17.85;11.08;;;;;;;2.88;79.98;99720.04;1992699;89;28889;-70
2022/12/08 02:35:26;;;;;;;18.30;10.40;;;;;;;2.88;80.06;99720.04;2032313;86;31425;-67
2022/12/08 02:38:46;;;;;;;20.35;10.70;;;;;;;2.88;80.08;99721.36;2033020;86;32933;-67
2022/12/08 02:42:28;;;;;;;19.42;11.28;;;;;;;2.86;79.94;99720.53;2032850;86;29411;-68
2022/12/08 02:45:38;;;;;;;18.07;11.30;;;;;;;2.86;80.05;99724.50;1993107;89;27738;-68
2022/12/08 02:48:41;;;;;;;22.00;11.08;;;;;;;2.87;80.06;99721.42;2033287;86;28824;-69
2022/12/08 02:51:43;;;;;;;18.30;11.05;;;;;;;2.86;80.05;99719.21;2022380;87;31030;-68
2022/12/08 02:54:50;;;;;;;17.50;11.22;;;;;;;2.86;80.07;99719.68;2033649;87;33038;-68
2022/12/08 02:58:19;;;;;;;21.10;10.90;;;;;;;2.86;80.09;99709.95;1992880;89;29572;-67
2022/12/08 03:01:39;;;;;;;19.82;11.53;;;;;;;2.87;80.13;99714.80;2032382;86;27606;-67
2022/12/08 03:05:09;;;;;;;15.98;10.63;;;;;;;2.86;80.02;99711.74;2032387;87;28694;-67
2022/12/08 03:08:35;;;;;;;17.57;10.48;;;;;;;2.85;79.95;99713.97;2022671;83;31034;-69
2022/12/08 03:11:44;;;;;;;24.20;12.05;;;;;;;2.84;80.04;99706.95;2001712;87;33036;-71
2022/12/08 03:14:54;;;;;;;21.40;11.60;;;;;;;2.82;80.06;99706.11;2024318;87;29360;-70
2022/12/08 03:17:59;;;;;;;18.73;11.20;;;;;;;2.80;80.02;99715.42;2026410;87;27689;-69
2022/12/08 03:21:03;;;;;;;16.23;11.15;;;;;;;2.79;80.02;99707.52;2026639;87;29650;-71
2022/12/08 03:24:07;;;;;;;21.55;11.03;;;;;;;2.78;80.04;99707.09;2026756;87;31057;-70
2022/12/08 03:27:17;;;;;;;22.70;11.90;;;;;;;2.76;80.10;99703.63;2026571;87;32973;-71
2022/12/08 03:30:18;;;;;;;16.42;11.05;;;;;;;2.73;79.93;99697.98;2026452;87;29506;-71
2022/12/08 03:33:23;;;;;;;20.60;11.88;;;;;;;2.69;79.87;99690.59;2026578;87;27717;-70
2022/12/08 03:36:25;;;;;;;19.05;11.03;;;;;;;2.67;79.91;99689.76;2026609;87;28110;-71
2022/12/08 03:39:28;;;;;;;19.55;11.20;;;;;;;2.64;79.94;99691.62;2026441;87;31851;-70
2022/12/08 03:42:29;;;;;;;17.70;10.98;;;;;;;2.62;79.96;99702.70;2026598;87;33003;-70
2022/12/08 03:45:31;;;;;;;16.45;11.03;;;;;;;2.62;80.11;99703.55;2026444;87;29329;-70
2022/12/08 03:48:32;;;;;;;20.27;11.53;;;;;;;2.62;80.14;99703.55;2026526;87;27696;-72
2022/12/08 03:51:34;;;;;;;14.78;11.00;;;;;;;2.63;80.17;99700.47;2025839;87;28635;-70
2022/12/08 03:54:36;;;;;;;14.65;10.40;;;;;;;2.63;80.01;99707.08;1970540;90;31831;-70
2022/12/08 03:57:37;;;;;;;17.65;10.88;;;;;;;2.63;80.06;99707.08;1970363;90;34147;-69
2022/12/08 04:00:39;;;;;;;18.37;11.10;;;;;;;2.63;80.03;99704.44;1970486;90;29313;-70
2022/12/08 04:03:40;;;;;;;13.85;9.15;;;;;;;2.64;79.88;99704.84;1970614;90;27672;-70
2022/12/08 04:06:42;;;;;;;17.02;11.30;;;;;;;2.61;79.79;99702.28;1970579;90;28661;-70
2022/12/08 04:09:45;;;;;;;21.10;12.35;;;;;;;2.62;79.87;99701.38;1985387;89;31010;-69
2022/12/08 04:12:46;;;;;;;22.22;13.58;;;;;;;2.63;79.89;99705.76;1977943;90;33981;-70
2022/12/08 04:15:48;;;;;;;20.82;12.07;;;;;;;2.63;79.73;99704.44;1998785;89;29328;-71
2022/12/08 04:18:50;;;;;;;19.90;11.90;;;;;;;2.65;79.85;99703.94;1978063;90;27769;-69
2022/12/08 04:21:52;;;;;;;16.75;10.48;;;;;;;2.65;79.80;99701.30;1999128;89;28857;-73
2022/12/08 04:24:54;;;;;;;18.17;11.35;;;;;;;2.66;79.84;99695.95;1978308;90;31421;-75
2022/12/08 04:27:55;;;;;;;14.83;10.23;;;;;;;2.68;79.71;99696.78;1998957;89;32937;-75
2022/12/08 04:30:57;;;;;;;20.48;11.83;;;;;;;2.68;79.69;99694.58;1978429;90;29331;-72
2022/12/08 04:33:58;;;;;;;17.50;10.88;;;;;;;2.70;79.84;99691.44;1998788;89;27651;-74
2022/12/08 04:37:00;;;;;;;20.00;10.95;;;;;;;2.70;79.69;99692.77;1978418;90;28665;-70
2022/12/08 04:40:02;;;;;;;15.88;11.03;;;;;;;2.71;79.79;99692.74;1998883;89;31022;-72
2022/12/08 04:43:04;;;;;;;17.67;11.00;;;;;;;2.71;79.80;99687.45;1978221;90;33242;-71
2022/12/08 04:46:07;;;;;;;14.98;10.00;;;;;;;2.73;79.66;99680.78;1998795;89;29332;-69
2022/12/08 04:49:08;;;;;;;17.55;11.25;;;;;;;2.72;79.68;99683.02;1978334;90;27701;-70
2022/12/08 04:52:10;;;;;;;16.00;11.10;;;;;;;2.72;79.76;99675.97;1999067;89;29637;-70
2022/12/08 04:55:12;;;;;;;14.58;9.93;;;;;;;2.76;79.87;99678.50;1978168;90;31043;-70
2022/12/08 04:58:17;;;;;;;17.12;11.53;;;;;;;2.78;79.84;99680.21;1998569;89;33742;-69
2022/12/08 05:01:18;;;;;;;18.70;13.35;;;;;;;2.79;79.94;99683.71;1978263;90;29353;-69
2022/12/08 05:04:20;;;;;;;22.70;14.25;;;;;;;2.79;79.93;99683.27;1998811;89;27762;-69
2022/12/08 05:07:21;;;;;;;20.52;15.38;;;;;;;2.82;79.92;99680.98;1978082;90;28659;-69
2022/12/08 05:10:23;;;;;;;25.17;16.25;;;;;;;2.81;79.94;99670.88;1991987;89;31076;-69
2022/12/08 05:13:25;;;;;;;27.85;18.00;;;;;;;2.81;79.83;99674.84;1973192;89;33443;-68
2022/12/08 05:16:26;;;;;;;26.73;16.65;;;;;;;2.81;79.85;99665.59;1987961;89;29379;-70
2022/12/08 05:19:28;;;;;;;26.97;15.15;;;;;;;2.81;79.92;99663.38;1987923;89;27723;-69
2022/12/08 05:22:29;;;;;;;27.00;15.53;;;;;;;2.80;79.87;99666.94;1973195;90;28129;-69
2022/12/08 05:25:31;;;;;;;26.65;14.68;;;;;;;2.78;79.80;99674.92;1987987;89;31821;-70
2022/12/08 05:28:32;;;;;;;24.25;14.60;;;;;;;2.72;79.58;99668.03;1987968;88;33007;-70
2022/12/08 05:31:34;;;;;;;20.43;14.25;;;;;;;2.69;79.59;99669.43;1973196;90;29481;-70
2022/12/08 05:34:36;;;;;;;22.07;14.25;;;;;;;2.66;79.58;99668.19;1988286;89;27716;-70
2022/12/08 05:37:37;;;;;;;22.30;14.68;;;;;;;2.64;79.67;99662.54;1988087;88;28666;-70
2022/12/08 05:40:39;;;;;;;23.05;14.70;;;;;;;2.61;79.57;99661.30;1973209;90;31878;-71
2022/12/08 05:43:41;;;;;;;20.30;13.93;;;;;;;2.57;79.67;99660.05;1988098;89;33810;-70
2022/12/08 05:46:42;;;;;;;21.27;14.87;;;;;;;2.54;79.52;99659.27;1973255;90;29328;-69
2022/12/08 05:49:44;;;;;;;17.90;13.60;;;;;;;2.51;79.53;99659.34;1988347;89;27750;-69
2022/12/08 05:52:45;;;;;;;22.55;14.40;;;;;;;2.45;79.42;99655.09;1974452;90;28671;-70
2022/12/08 05:55:47;;;;;;;24.52;15.15;;;;;;;2.38;79.34;99653.08;1975236;90;31865;-70
2022/12/08 05:58:49;;;;;;;20.97;14.10;;;;;;;2.33;79.35;99654.08;1975221;90;33720;-69
2022/12/08 06:01:50;;;;;;;20.92;15.03;;;;;;;2.27;79.35;99653.79;1974905;89;29743;-68
2022/12/08 06:04:52;;;;;;;23.52;15.40;;;;;;;2.21;79.23;99661.90;1975442;90;27772;-69
2022/12/08 06:07:53;;;;;;;19.25;14.35;;;;;;;2.12;79.19;99665.17;1975236;90;28831;-69
2022/12/08 06:10:55;;;;;;;26.80;15.00;;;;;;;2.06;79.22;99659.17;1967734;90;31032;-71
2022/12/08 06:13:57;;;;;;;22.50;15.55;;;;;;;1.99;79.25;99661.11;1963932;90;33780;-69
2022/12/08 06:16:58;;;;;;;23.90;16.55;;;;;;;1.94;79.36;99661.66;1963957;90;30256;-69
2022/12/08 06:20:00;;;;;;;25.10;17.05;;;;;;;1.89;79.40;99657.82;1964089;90;27760;-70
2022/12/08 06:23:02;;;;;;;30.52;17.50;;;;;;;1.85;79.44;99657.47;1964140;90;28703;-69
2022/12/08 06:26:08;;;;;;;26.62;16.05;;;;;;;1.81;79.47;99667.72;1964048;90;31218;-69
2022/12/08 06:29:10;;;;;;;23.95;16.67;;;;;;;1.77;79.49;99660.30;1963893;90;33791;-71
2022/12/08 06:32:11;;;;;;;28.98;17.25;;;;;;;1.73;79.57;99666.58;1963989;90;29322;-70
2022/12/08 06:35:13;;;;;;;23.77;16.95;;;;;;;1.71;79.64;99658.27;1964030;90;27748;-70
2022/12/08 06:38:15;;;;;;;23.32;16.55;;;;;;;1.70;79.72;99657.41;1963999;90;28721;-70
2022/12/08 06:41:17;;;;;;;26.82;17.57;;;;;;;1.69;79.73;99661.38;1963974;90;31324;-69
2022/12/08 06:44:19;;;;;;;25.10;17.10;;;;;;;1.66;79.82;99655.73;1964076;90;33162;-69
2022/12/08 06:47:21;;;;;;;28.35;18.02;;;;;;;1.65;79.87;99660.16;1964182;90;29328;-71
2022/12/08 06:50:23;;;;;;;30.05;18.85;;;;;;;1.65;79.87;99661.92;1964394;90;27610;-70
2022/12/08 06:53:24;;;;;;;30.55;18.77;;;;;;;1.63;79.90;99669.00;1963872;90;29603;-70
2022/12/08 06:56:26;;;;;;;29.80;19.00;;;;;;;1.62;79.93;99662.87;1964187;90;31813;-68
2022/12/08 06:59:28;;;;;;;31.57;19.42;;;;;;;1.62;80.00;99660.23;1964160;90;33694;-69
2022/12/08 07:02:30;;;;;;;32.00;17.95;;;;;;;1.62;79.97;99664.63;1964621;90;29343;-68
2022/12/08 07:05:32;;;;;;;28.00;18.77;;;;;;;1.61;80.01;99661.56;1964222;90;27682;-69
2022/12/08 07:08:34;;;;;;;31.52;18.37;;;;;;;1.63;80.01;99665.05;1964124;90;29966;-69
2022/12/08 07:11:38;;;;;;;31.12;18.92;;;;;;;1.62;80.06;99667.27;1974058;90;31398;-68
2022/12/08 07:14:40;;;;;;;28.77;18.37;;;;;;;1.62;80.07;99672.11;2031474;87;33056;-67
2022/12/08 07:17:41;;;;;;;25.72;16.95;;;;;;;1.62;80.14;99666.83;2031295;87;30537;-69
2022/12/08 07:20:43;;;;;;;35.28;18.15;;;;;;;1.65;80.22;99666.77;2031401;87;27701;-69
2022/12/08 07:23:47;;;;;;;27.98;18.35;;;;;;;1.66;80.25;99664.51;2017382;88;29879;-69
2022/12/08 07:26:48;;;;;;;29.72;18.75;;;;;;;1.69;80.31;99662.70;2031888;87;30937;-70
2022/12/08 07:29:50;;;;;;;30.17;17.35;;;;;;;1.72;80.37;99663.95;2017740;88;33109;-69
2022/12/08 07:32:51;;;;;;;28.83;17.32;;;;;;;1.77;80.43;99666.05;2031368;86;30428;-68
2022/12/08 07:35:58;;;;;;;28.92;18.35;;;;;;;1.81;80.48;99668.57;2031426;86;28311;-70
2022/12/08 07:39:00;;;;;;;25.82;17.40;;;;;;;1.86;80.48;99664.96;2017579;88;28667;-68
2022/12/08 07:42:02;;;;;;;26.05;16.32;;;;;;;1.91;80.49;99662.62;2031462;87;31184;-70
2022/12/08 07:45:04;;;;;;;30.55;16.60;;;;;;;1.96;80.47;99658.09;2031451;87;33013;-70
2022/12/08 07:48:06;;;;;;;26.90;17.07;;;;;;;2.01;80.53;99661.05;2017555;88;30140;-69
2022/12/08 07:51:08;;;;;;;26.07;15.35;;;;;;;2.06;80.50;99661.82;2030506;87;27668;-69
2022/12/08 07:54:13;;;;;;;27.10;16.25;;;;;;;2.11;80.51;99660.80;1998625;89;28728;-70
2022/12/08 07:57:14;;;;;;;23.50;16.12;;;;;;;2.17;80.50;99658.91;1978408;90;31232;-69
2022/12/08 08:00:17;;;;;;;29.15;15.68;;;;;;;2.23;80.63;99660.09;1998948;89;32979;-69
2022/12/08 08:03:20;;;;;;;26.17;15.68;;;;;;;2.28;80.53;99663.45;1978440;90;29962;-69
2022/12/08 08:06:24;;;;;;;21.97;15.25;;;;;;;2.33;80.53;99668.62;1998985;89;28246;-70
2022/12/08 08:09:25;;;;;;;23.85;15.72;;;;;;;2.41;80.62;99670.15;1978308;90;28040;-70
2022/12/08 08:12:27;;;;;;;23.45;15.43;;;;;;;2.49;80.57;99667.30;1988927;89;31016;-70
2022/12/08 08:15:29;;;;;;;21.93;14.90;;;;;;;2.56;80.60;99666.24;1973440;90;33013;-70
2022/12/08 08:18:31;;;;;;;21.12;14.85;;;;;;;2.66;80.57;99664.22;1988253;89;29387;-70
2022/12/08 08:21:32;;;;;;;21.82;15.10;;;;;;;2.76;80.62;99671.89;1973215;90;27757;-70
2022/12/08 08:24:34;;;;;;;22.48;14.40;;;;;;;2.85;80.66;99671.17;1988195;89;29583;-69
2022/12/08 08:27:35;;;;;;;23.45;14.05;;;;;;;2.96;80.60;99668.23;1973521;90;31020;-69
2022/12/08 08:30:37;;;;;;;22.75;14.53;;;;;;;3.07;80.51;99670.58;1988432;89;33793;-69
2022/12/08 08:33:38;;;;;;;22.87;14.43;;;;;;;3.17;80.44;99670.70;1973461;90;29320;-70
2022/12/08 08:36:40;;;;;;;21.82;14.47;;;;;;;3.30;80.37;99671.69;1988619;89;27713;-69
2022/12/08 08:39:42;;;;;;;18.95;14.10;;;;;;;3.42;80.42;99665.13;1988470;89;28800;-70
2022/12/08 08:42:43;;;;;;;19.07;13.15;;;;;;;3.56;80.53;99666.89;1973320;90;32221;-69
2022/12/08 08:45:46;;;;;;;20.15;13.58;;;;;;;3.69;80.36;99662.09;1988221;89;32980;-70
2022/12/08 08:48:47;;;;;;;17.60;12.37;;;;;;;3.81;80.05;99662.16;1988279;89;29514;-69
2022/12/08 08:51:49;;;;;;;20.43;12.58;;;;;;;3.93;79.74;99666.20;1974070;90;27815;-69
2022/12/08 08:54:51;;;;;;;19.15;12.53;;;;;;;4.02;79.54;99660.59;1988357;89;28854;-69
2022/12/08 08:57:55;;;;;;;18.82;11.38;;;;;;;4.08;79.41;99665.70;1973425;90;31183;-69
2022/12/08 09:00:57;;;;;;;18.48;11.90;;;;;;;4.15;79.38;99658.84;1988452;89;32625;-69
2022/12/08 09:03:58;;;;;;;17.67;11.30;;;;;;;4.23;79.22;99651.52;1973441;90;29498;-69
2022/12/08 09:07:00;;;;;;;18.52;11.90;;;;;;;4.32;79.25;99653.84;1988364;89;27727;-69
2022/12/08 09:10:04;;;;;;;24.52;11.63;;;;;;;4.40;78.97;99654.90;1988375;89;28577;-69
2022/12/08 09:13:05;;;;;;;18.05;11.95;;;;;;;4.49;79.09;99645.31;1960844;90;31155;-69
2022/12/08 09:16:08;;;;;;;20.10;12.58;;;;;;;4.59;78.95;99643.64;1986912;89;33798;-70
2022/12/08 09:19:10;;;;;;;21.40;12.85;;;;;;;4.68;78.94;99636.22;1986808;89;29356;-70
2022/12/08 09:22:13;;;;;;;16.77;11.78;;;;;;;4.80;78.71;99636.72;1984053;89;27598;-69
2022/12/08 09:25:15;;;;;;;16.52;11.78;;;;;;;4.89;78.56;99632.83;1994049;88;29517;-69
2022/12/08 09:28:17;;;;;;;18.17;13.18;;;;;;;4.97;78.50;99628.13;1935288;91;31862;-70
2022/12/08 09:31:20;;;;;;;19.10;11.45;;;;;;;5.08;78.35;99630.38;1947394;91;33719;-70
2022/12/08 09:34:21;;;;;;;16.73;11.30;;;;;;;5.15;78.10;99629.20;1980742;89;29402;-70
2022/12/08 09:37:23;;;;;;;16.60;11.30;;;;;;;5.25;77.90;99627.95;1935355;92;27724;-69
2022/12/08 09:40:25;;;;;;;19.95;12.80;;;;;;;5.30;77.47;99625.95;1947424;91;29506;-70
2022/12/08 09:43:50;;;;;;;17.82;12.15;;;;;;;5.33;77.26;99621.86;1962692;89;31084;-69
2022/12/08 09:46:52;;;;;;;16.80;11.57;;;;;;;5.35;77.02;99620.48;1935551;92;33011;-68
2022/12/08 09:50:15;;;;;;;14.75;10.25;;;;;;;5.40;76.89;99614.51;1947737;90;29347;-68
2022/12/08 09:53:33;;;;;;;17.70;11.53;;;;;;;5.44;76.98;99613.95;1974556;89;27663;-66
2022/12/08 09:56:36;;;;;;;22.17;11.12;;;;;;;5.50;76.77;99611.03;1978724;89;28698;-68
2022/12/08 09:59:40;;;;;;;15.15;10.65;;;;;;;5.52;76.45;99618.95;1980675;89;31865;-68
2022/12/08 10:02:42;;;;;;;16.55;9.80;;;;;;;5.47;76.07;99614.69;1980649;89;32985;-66
2022/12/08 10:05:55;;;;;;;16.95;9.95;;;;;;;5.48;75.51;99613.76;1980689;89;29346;-69
2022/12/08 10:09:11;;;;;;;22.67;12.30;;;;;;;5.48;75.96;99612.44;1980801;89;27725;-67
2022/12/08 10:12:49;;;;;;;15.83;10.78;;;;;;;5.51;75.66;99607.45;2007762;87;29529;-67
2022/12/08 10:16:02;;;;;;;15.13;9.95;;;;;;;5.51;75.60;99610.10;2037515;87;31913;-69
2022/12/08 10:19:20;;;;;;;19.57;11.57;;;;;;;5.54;75.13;99603.34;2000420;87;32970;-69
2022/12/08 10:22:25;;;;;;;14.80;11.15;;;;;;;5.58;75.40;99602.75;1942551;91;29465;-70
2022/12/08 10:25:46;;;;;;;16.30;11.33;;;;;;;5.61;75.38;99598.20;1954979;91;27578;-69
2022/12/08 10:28:48;;;;;;;20.17;11.03;;;;;;;5.69;75.48;99595.23;1971254;90;28854;-69
2022/12/08 10:31:49;;;;;;;16.17;11.05;;;;;;;5.80;75.48;99590.77;1971395;90;31057;-70
2022/12/08 10:35:10;;;;;;;15.90;10.68;;;;;;;5.88;75.43;99582.48;1971421;90;32950;-69
2022/12/08 10:38:34;;;;;;;18.87;11.83;;;;;;;5.95;75.27;99584.44;1971395;90;29510;-70
2022/12/08 10:41:36;;;;;;;22.73;11.85;;;;;;;5.98;74.90;99582.52;1971565;90;27810;-71
2022/12/08 10:44:43;;;;;;;14.78;10.63;;;;;;;6.01;74.74;99579.77;1971360;90;29697;-70
2022/12/08 10:47:55;;;;;;;15.60;10.78;;;;;;;6.03;74.28;99575.25;1969667;88;31090;-68
2022/12/08 10:50:58;;;;;;;19.30;10.68;;;;;;;6.04;74.20;99578.75;1993997;88;33705;-69
2022/12/08 10:54:00;;;;;;;15.40;10.80;;;;;;;6.12;74.41;99573.98;1987021;89;29334;-70
2022/12/08 10:57:02;;;;;;;15.50;10.32;;;;;;;6.20;74.33;99578.98;1966126;89;28387;-70
2022/12/08 11:00:07;;;;;;;14.15;10.40;;;;;;;6.28;73.75;99575.50;1986971;89;28866;-69
2022/12/08 11:03:14;;;;;;;13.00;9.93;;;;;;;6.31;73.72;99574.05;1966137;89;31457;-69
2022/12/08 11:06:37;;;;;;;11.97;9.40;;;;;;;6.37;73.54;99571.09;2003579;88;33733;-69
2022/12/08 11:09:47;;;;;;;14.23;9.93;;;;;;;6.43;73.39;99565.11;2009339;88;30506;-69
2022/12/08 11:12:49;;;;;;;14.58;10.70;;;;;;;6.48;73.31;99566.63;1997689;88;27706;-68
2022/12/08 11:15:54;;;;;;;12.65;9.70;;;;;;;6.53;73.36;99570.44;1992377;88;28713;-69
2022/12/08 11:18:57;;;;;;;14.15;9.70;;;;;;;6.56;72.97;99569.43;1991387;88;31915;-71
2022/12/08 11:21:59;;;;;;;18.07;10.18;;;;;;;6.58;72.50;99566.23;1992176;89;33063;-70
2022/12/08 11:25:23;;;;;;;15.63;10.28;;;;;;;6.60;72.51;99561.71;1961136;89;29405;-69
2022/12/08 11:28:25;;;;;;;16.23;10.63;;;;;;;6.61;72.52;99556.30;1992538;89;28236;-68
2022/12/08 11:31:34;;;;;;;17.07;10.18;;;;;;;6.65;72.48;99558.36;1992438;89;28851;-70
2022/12/08 11:34:49;;;;;;;13.32;9.95;;;;;;;6.69;72.34;99562.61;1992498;88;31935;-70
2022/12/08 11:37:52;;;;;;;17.20;10.68;;;;;;;6.66;71.76;99562.30;1992253;89;33094;-69
2022/12/08 11:41:04;;;;;;;17.95;9.95;;;;;;;6.68;71.82;99556.89;1992537;88;30162;-70
2022/12/08 11:44:37;;;;;;;13.43;9.45;;;;;;;6.66;71.87;99560.08;1992884;88;27777;-71
2022/12/08 11:48:06;;;;;;;20.75;12.13;;;;;;;6.67;71.87;99549.84;1981563;88;28691;-70
2022/12/08 11:51:19;;;;;;;25.88;15.23;;;;;;;6.65;71.52;99553.03;1940878;91;31098;-70
2022/12/08 11:54:37;;;;;;;20.70;13.85;;;;;;;6.58;70.95;99557.77;1955603;90;33040;-69
2022/12/08 11:57:39;;;;;;;20.97;12.85;;;;;;;6.52;71.28;99548.27;1941933;91;30161;-69
2022/12/08 12:00:40;;;;;;;21.70;13.60;;;;;;;6.47;70.83;99548.94;1942022;91;27907;-69
2022/12/08 12:03:47;;;;;;;15.58;10.98;;;;;;;6.44;70.92;99542.90;1941992;91;28674;-69
2022/12/08 12:07:02;;;;;;;22.98;13.25;;;;;;;6.41;70.86;99546.57;1941055;91;31081;-70
2022/12/08 12:10:09;;;;;;;17.80;11.28;;;;;;;6.36;70.94;99542.80;1941424;91;33164;-69
2022/12/08 12:13:48;;;;;;;18.00;11.55;;;;;;;6.33;70.51;99540.71;1944046;91;29415;-70
2022/12/08 12:17:00;;;;;;;15.15;11.38;;;;;;;6.29;70.60;99541.80;1945944;89;27861;-71
2022/12/08 12:20:06;;;;;;;18.05;11.53;;;;;;;6.30;70.80;99544.37;2009208;88;29533;-71
2022/12/08 12:23:25;;;;;;;17.67;11.00;;;;;;;6.32;70.59;99541.64;2008724;88;31061;-69
2022/12/08 12:26:36;;;;;;;18.55;10.95;;;;;;;6.35;70.66;99540.18;2008765;88;33782;-71
2022/12/08 12:29:38;;;;;;;15.53;10.90;;;;;;;6.37;70.44;99535.17;1997306;89;30336;-70
2022/12/08 12:32:48;;;;;;;19.10;13.20;;;;;;;6.38;70.22;99545.38;1978362;90;27746;-69
2022/12/08 12:35:50;;;;;;;24.07;16.80;;;;;;;6.34;70.26;99534.45;1956724;90;29548;-69
2022/12/08 12:39:05;;;;;;;20.62;16.32;;;;;;;6.31;70.07;99536.80;1978255;90;31873;-69
2022/12/08 12:42:08;;;;;;;21.70;15.83;;;;;;;6.27;69.97;99533.88;1979703;89;29947;-70
2022/12/08 12:45:15;;;;;;;17.98;14.83;;;;;;;6.23;70.12;99533.16;1978490;89;30500;-70
2022/12/08 12:48:24;;;;;;;19.17;13.93;;;;;;;6.17;69.97;99535.22;1976995;90;27677;-69
2022/12/08 12:51:42;;;;;;;19.75;14.55;;;;;;;6.12;70.18;99531.44;1994102;89;28880;-69
2022/12/08 12:54:51;;;;;;;20.27;13.70;;;;;;;6.06;70.12;99527.23;2018514;87;31035;-70
2022/12/08 12:57:58;;;;;;;22.73;13.13;;;;;;;6.01;70.03;99519.94;2017188;88;32979;-70
2022/12/08 13:01:29;;;;;;;22.07;15.80;;;;;;;5.95;69.95;99521.97;2018983;87;29521;-69
2022/12/08 13:04:34;;;;;;;15.53;12.05;;;;;;;5.88;69.98;99520.01;2018425;87;27734;-70
2022/12/08 13:08:01;;;;;;;13.18;11.12;;;;;;;5.81;69.85;99522.55;1994020;89;29484;-69
2022/12/08 13:11:09;;;;;;;16.87;11.03;;;;;;;5.74;69.92;99520.14;1993993;89;31094;-71
2022/12/08 13:14:27;;;;;;;19.90;12.33;;;;;;;5.69;69.93;99515.51;1998174;88;33638;-72
2022/12/08 13:17:32;;;;;;;17.82;11.65;;;;;;;5.62;69.99;99517.56;1978163;90;30192;-70
2022/12/08 13:20:41;;;;;;;;;;;;;;;5.54;69.77;99513.02;2001315;89;27757;-69
2022/12/08 13:24:12;;;;;;;17.77;11.45;;;;;;;5.46;69.73;99512.01;1965227;90;29645;-69
2022/12/08 13:27:31;;;;;;;16.65;11.35;;;;;;;5.37;69.86;99509.75;1978040;90;31100;-66
2022/12/08 13:30:56;;;;;;;18.20;12.28;;;;;;;5.26;69.91;99507.52;1975749;90;34227;-66
2022/12/08 13:33:59;;;;;;;17.73;12.10;;;;;;;5.20;70.03;99502.92;1942038;91;43751;-64
2022/12/08 13:37:32;;;;;;;21.40;13.08;;;;;;;5.14;69.99;99500.02;1992114;89;27946;-64
2022/12/08 13:40:36;;;;;;;16.80;11.68;;;;;;;5.07;69.86;99499.41;2000195;88;30071;-65
2022/12/08 13:43:47;;;;;;;17.35;11.75;;;;;;;4.98;69.91;99501.97;2000010;88;33292;-63
2022/12/08 13:46:52;;;;;;;14.07;11.63;;;;;;;4.94;70.00;99507.02;2000305;87;34375;-65
2022/12/08 13:50:05;;;;;;;18.52;11.90;;;;;;;4.89;69.86;99508.09;2000783;88;30537;-63
2022/12/08 13:53:31;;;;;;;29.42;18.27;;;;;;;4.79;69.56;99507.14;1971825;90;28227;-64
2022/12/08 13:56:38;;;;;;;24.52;17.48;;;;;;;4.73;69.98;99510.50;1972721;90;29525;-63
2022/12/08 13:59:44;;;;;;;20.08;14.63;;;;;;;4.67;69.92;99509.80;1969040;90;31749;-65
2022/12/08 14:02:49;;;;;;;23.62;14.07;;;;;;;4.48;70.01;99483.56;1972278;90;33751;-62
2022/12/08 14:05:52;;;;;;;20.20;14.47;;;;;;;4.57;70.03;99503.13;1972156;90;29492;-64
2022/12/08 14:08:58;;;;;;;18.85;13.10;;;;;;;4.52;69.94;99506.41;1996099;89;27790;-62
2022/12/08 14:12:20;;;;;;;17.48;13.28;;;;;;;4.44;70.07;99502.71;1994546;89;29942;-62
2022/12/08 14:15:22;;;;;;;17.48;11.97;;;;;;;4.39;69.93;99508.64;1982452;89;31129;-66
2022/12/08 14:18:29;;;;;;;21.87;11.93;;;;;;;4.32;70.04;99506.67;1951535;89;33913;-64
2022/12/08 14:21:31;;;;;;;16.48;12.23;;;;;;;4.26;70.12;99513.07;1989609;89;29409;-65
2022/12/08 14:24:33;;;;;;;18.40;13.13;;;;;;;4.21;70.13;99510.19;1989658;89;28329;-65
2022/12/08 14:27:36;;;;;;;18.55;13.32;;;;;;;4.16;70.21;99508.16;1989853;89;28661;-66
2022/12/08 14:30:42;;;;;;;27.10;18.37;;;;;;;4.10;70.20;99511.90;1991170;89;32036;-65
2022/12/08 14:33:46;;;;;;;24.57;16.02;;;;;;;4.02;70.26;99506.88;1987457;89;33141;-65
2022/12/08 14:36:49;;;;;;;17.55;13.00;;;;;;;3.96;70.28;99508.43;1980521;87;27839;-65